createdAt,value
2024-04-16T04:47:47.459Z,3.53
2024-04-16T04:50:15.206Z,3.78
2024-04-16T04:52:42.624Z,3.97
2024-04-16T04:55:10.229Z,4.19
2024-04-16T04:57:37.839Z,4.37
2024-04-16T05:00:05.645Z,4.55
2024-04-16T05:02:33.161Z,4.72
2024-04-16T05:05:00.735Z,4.88
2024-04-16T05:07:28.141Z,4.99
2024-04-16T05:09:55.834Z,5.16
2024-04-16T05:12:23.960Z,5.38
2024-04-16T05:14:51.882Z,5.59
2024-04-16T05:17:19.348Z,5.64
2024-04-16T05:19:47.097Z,5.64
2024-04-16T05:22:14.693Z,5.64
2024-04-16T05:24:42.530Z,5.80
2024-04-16T05:27:10.521Z,5.98
2024-04-16T05:29:38.290Z,6.04
2024-04-16T05:32:06.166Z,5.88
2024-04-16T05:34:34.021Z,5.94
2024-04-16T05:37:01.620Z,6.20
2024-04-16T05:39:29.393Z,6.44
2024-04-16T05:41:57.166Z,6.69
2024-04-16T05:44:24.842Z,6.95
2024-04-16T05:46:52.457Z,7.09
2024-04-16T05:49:20.638Z,7.19
2024-04-16T05:51:48.252Z,7.27
2024-04-16T05:54:15.986Z,7.31
2024-04-16T05:56:43.615Z,7.32
2024-04-16T05:59:11.277Z,7.38
2024-04-16T06:01:38.919Z,7.44
2024-04-16T06:04:06.916Z,7.52
2024-04-16T06:06:34.653Z,7.57
2024-04-16T06:09:02.418Z,7.64
2024-04-16T06:11:31.518Z,7.69
2024-04-16T06:14:02.292Z,7.78
2024-04-16T06:16:30.099Z,7.83
2024-04-16T06:18:57.774Z,7.89
2024-04-16T06:21:25.532Z,7.99
2024-04-16T06:23:53.121Z,8.08
2024-04-16T06:26:20.881Z,8.13
2024-04-16T06:28:48.620Z,8.24
2024-04-16T06:31:17.365Z,8.36
2024-04-16T06:33:45.317Z,8.41
2024-04-16T06:36:12.990Z,8.45
2024-04-16T06:38:40.707Z,8.53
2024-04-16T06:41:08.466Z,8.61
2024-04-16T06:43:36.211Z,8.68
2024-04-16T06:46:04.188Z,8.73
2024-04-16T06:48:35.691Z,8.78
2024-04-16T06:51:03.591Z,8.86
2024-04-16T06:53:31.266Z,9.00
2024-04-16T06:56:03.164Z,9.10
2024-04-16T06:58:31.042Z,9.13
